National Weather Service Raw Text Product

Displaying AFOS PIL: TAFALO Received: 2018-07-12 00:02 UTC


435 
FTUS43 KDMX 120002 AAA
TAFALO
TAF AMD
KALO 120002Z 1200/1224 14013G18KT P6SM FEW060
     FM120100 15008KT P6SM SCT200
     FM121400 18008KT P6SM SCT200
     FM121900 20011G17KT P6SM SCT040 SCT070=